Time;durP1;ratioP1;P1;durP2;ratioP2;P2;SDS_P1;SDS_P2;PMS_P1;PMS_P2;Temp;Humidity;BMP_temperature;BMP_pressure;BME280_temperature;BME280_humidity;BME280_pressure;Samples;Min_cycle;Max_cycle;Signal;HPM_P1;HPM_P2
2020/12/13 04:58:29;;;;;;;75.07;29.37;;;;;;;-0.64;96.99;98426.62;4587607;76;22911;-82
2020/12/13 05:04:32;;;;;;;61.87;27.93;;;;;;;-0.60;96.92;98435.65;4491202;77;21411;-83
2020/12/13 05:10:38;;;;;;;61.00;26.37;;;;;;;-0.43;96.70;98437.53;4496680;78;21531;-82
2020/12/13 05:16:38;;;;;;;45.40;21.30;;;;;;;-0.21;96.56;98442.75;4489200;77;21661;-83
2020/12/13 05:22:39;;;;;;;45.33;19.70;;;;;;;-0.03;96.04;98451.03;4491055;78;21160;-83
2020/12/13 05:28:46;;;;;;;47.93;22.07;;;;;;;-0.02;95.84;98460.13;4490538;78;21326;-83
2020/12/13 05:34:49;;;;;;;39.03;17.85;;;;;;;0.09;95.73;98461.15;4488752;78;21295;-83
2020/12/13 05:40:51;;;;;;;43.45;20.35;;;;;;;0.05;95.65;98462.34;4492858;78;21157;-83
2020/12/13 05:53:03;;;;;;;37.45;16.77;;;;;;;0.22;95.61;98466.34;4489575;78;21222;-82
2020/12/13 05:59:06;;;;;;;38.78;18.40;;;;;;;0.15;95.54;98484.09;4485245;78;21129;-82
2020/12/13 06:05:12;;;;;;;43.60;18.98;;;;;;;0.15;95.54;98484.09;4487461;78;21171;-83
2020/12/13 06:11:12;;;;;;;35.50;17.12;;;;;;;0.16;95.40;98480.31;4493394;78;21181;-83
2020/12/13 06:17:14;;;;;;;34.73;17.45;;;;;;;0.08;95.73;98489.19;4487006;78;21133;-83
2020/12/13 06:23:18;;;;;;;35.95;18.32;;;;;;;0.07;96.22;98489.73;4490558;78;21151;-83
2020/12/13 06:29:21;;;;;;;35.10;16.32;;;;;;;0.11;95.85;98486.63;4485151;78;21164;-84
2020/12/13 06:35:23;;;;;;;38.85;17.48;;;;;;;0.16;95.75;98493.19;4492357;78;21176;-84
2020/12/13 06:41:31;;;;;;;35.85;18.25;;;;;;;0.10;95.62;98501.20;4493265;78;21604;-83
2020/12/13 06:47:32;;;;;;;33.23;16.73;;;;;;;0.12;95.59;98512.45;4488816;78;21171;-83
2020/12/13 06:53:36;;;;;;;32.00;16.00;;;;;;;0.20;95.60;98514.34;4482515;78;21168;-83
2020/12/13 06:59:43;;;;;;;33.35;17.48;;;;;;;0.18;95.41;98521.94;4493816;78;21168;-81
2020/12/13 07:12:06;;;;;;;29.45;16.40;;;;;;;0.25;95.29;98532.23;4588231;76;22941;-81
2020/12/13 07:18:10;;;;;;;29.95;16.95;;;;;;;0.23;95.33;98539.28;4491067;78;21193;-81
2020/12/13 07:24:12;;;;;;;31.57;16.65;;;;;;;0.29;95.45;98547.42;4491382;78;21189;-81
2020/12/13 07:30:13;;;;;;;36.48;17.42;;;;;;;0.26;95.17;98556.13;4492857;78;21183;-81
2020/12/13 07:36:15;;;;;;;34.53;18.82;;;;;;;0.17;95.36;98529.78;4493858;78;21136;-81
2020/12/13 07:42:16;;;;;;;47.90;23.15;;;;;;;0.34;95.17;98550.50;4486232;78;21143;-81
2020/12/13 07:48:18;;;;;;;43.55;20.95;;;;;;;0.35;95.33;98565.53;4485087;78;21157;-81
2020/12/13 07:54:30;;;;;;;28.23;16.17;;;;;;;0.48;95.47;98576.16;4487481;78;21163;-81
2020/12/13 08:00:32;;;;;;;30.55;16.17;;;;;;;0.46;95.05;98581.60;4497642;78;21188;-81
2020/12/13 08:06:34;;;;;;;33.90;17.47;;;;;;;0.33;95.08;98561.81;4489654;78;21171;-81
2020/12/13 08:12:40;;;;;;;34.63;19.50;;;;;;;0.34;95.10;98578.77;4487910;78;21119;-81
2020/12/13 08:18:47;;;;;;;41.63;18.60;;;;;;;0.51;95.05;98581.44;4486209;78;21302;-81
2020/12/13 08:24:58;;;;;;;32.20;18.75;;;;;;;0.30;94.81;98564.38;4490035;78;21120;-81
2020/12/13 08:37:11;;;;;;;29.48;16.60;;;;;;;0.55;94.94;98593.95;4585821;76;22221;-81
2020/12/13 08:43:20;;;;;;;32.08;16.32;;;;;;;0.50;94.70;98603.53;4494700;78;21105;-81
2020/12/13 08:49:31;;;;;;;31.23;15.32;;;;;;;0.55;94.71;98605.30;4495802;78;21136;-81
2020/12/13 08:55:32;;;;;;;37.58;19.07;;;;;;;0.65;94.87;98607.64;4492701;78;21152;-81
2020/12/13 09:01:38;;;;;;;35.17;19.67;;;;;;;0.75;94.63;98616.75;4497171;78;21636;-81
2020/12/13 09:07:45;;;;;;;42.50;22.00;;;;;;;0.75;94.63;98616.75;4492572;78;21391;-81
2020/12/13 09:13:50;;;;;;;41.45;19.98;;;;;;;0.74;94.46;98619.19;4491894;78;21132;-81
2020/12/13 09:19:52;;;;;;;37.88;19.75;;;;;;;0.56;94.52;98621.14;4490463;78;21121;-81
2020/12/13 09:25:54;;;;;;;36.45;19.57;;;;;;;0.54;94.53;98626.05;4491093;78;21197;-81
2020/12/13 09:31:57;;;;;;;42.40;21.48;;;;;;;0.55;94.57;98633.58;4481921;78;21172;-81
2020/12/13 09:38:04;;;;;;;44.65;22.20;;;;;;;0.49;94.55;98629.44;4494761;78;21127;-81
2020/12/13 09:44:06;;;;;;;41.42;23.30;;;;;;;0.59;94.54;98617.00;4487827;78;21136;-81
2020/12/13 09:50:07;;;;;;;43.95;22.10;;;;;;;0.57;94.36;98621.36;4490484;78;21156;-81
2020/12/13 09:56:08;;;;;;;36.55;19.32;;;;;;;0.61;94.49;98617.48;4488797;78;21168;-81
2020/12/13 10:02:10;;;;;;;39.13;21.20;;;;;;;0.62;94.20;98619.86;4485292;78;21132;-81
2020/12/13 10:14:32;;;;;;;43.92;20.70;;;;;;;0.53;93.94;98610.20;4489145;78;21117;-82
2020/12/13 10:20:40;;;;;;;40.80;20.85;;;;;;;0.65;94.11;98634.03;4490116;78;21633;-81
2020/12/13 10:26:41;;;;;;;46.55;23.07;;;;;;;0.71;94.12;98636.80;4493228;78;21640;-81
2020/12/13 10:32:43;;;;;;;46.45;21.82;;;;;;;0.59;93.75;98617.00;4484390;78;21143;-81
2020/12/13 10:38:44;;;;;;;47.15;21.27;;;;;;;0.59;93.75;98617.00;4456851;78;21148;-81
2020/12/13 10:44:48;;;;;;;37.80;21.05;;;;;;;0.63;93.92;98624.67;4455060;78;21176;-81
2020/12/13 10:50:49;;;;;;;47.27;24.37;;;;;;;0.41;93.96;98614.87;4454595;78;21208;-82
2020/12/13 10:56:50;;;;;;;45.50;22.17;;;;;;;0.41;93.96;98614.87;4451608;78;21152;-81
2020/12/13 11:02:53;;;;;;;37.42;19.62;;;;;;;0.66;94.19;98630.80;4451748;78;21164;-82
2020/12/13 11:08:55;;;;;;;44.30;22.60;;;;;;;0.41;94.00;98630.26;4457569;78;21160;-81
2020/12/13 11:14:56;;;;;;;42.40;23.22;;;;;;;0.48;94.25;98637.29;4454647;78;21143;-81
2020/12/13 11:20:58;;;;;;;52.35;25.62;;;;;;;0.59;93.97;98643.94;4457531;78;21168;-82
2020/12/13 11:26:59;;;;;;;48.00;24.95;;;;;;;0.54;94.05;98631.43;4457271;78;21749;-81
2020/12/13 11:33:01;;;;;;;48.50;24.00;;;;;;;0.62;94.28;98636.02;4465860;78;21192;-81
2020/12/13 11:39:03;;;;;;;51.77;24.27;;;;;;;0.68;94.08;98645.52;4483131;78;21533;-81
2020/12/13 11:45:06;;;;;;;44.33;23.45;;;;;;;0.58;93.80;98643.14;4488643;78;21188;-81
2020/12/13 11:51:07;;;;;;;52.33;23.75;;;;;;;0.52;93.97;98643.64;4482176;78;21117;-81
2020/12/13 11:57:08;;;;;;;48.73;23.60;;;;;;;0.50;93.80;98653.36;4497451;78;21291;-82
2020/12/13 12:03:10;;;;;;;56.58;25.68;;;;;;;0.44;94.09;98631.73;4490980;78;21543;-81
2020/12/13 12:09:12;;;;;;;62.48;26.37;;;;;;;0.49;94.21;98638.86;4487500;78;21157;-81
2020/12/13 12:15:13;;;;;;;57.73;27.15;;;;;;;0.66;93.86;98669.28;4489900;78;21282;-81
2020/12/13 12:21:17;;;;;;;55.20;27.05;;;;;;;0.67;94.00;98671.43;4489914;78;21148;-81
2020/12/13 12:27:18;;;;;;;57.73;25.57;;;;;;;0.67;94.00;98671.43;4486741;78;21606;-81
2020/12/13 12:33:20;;;;;;;57.70;26.57;;;;;;;0.66;93.76;98675.24;4496963;78;21196;-81
2020/12/13 12:39:21;;;;;;;58.52;28.40;;;;;;;0.67;93.84;98683.01;4490846;78;21168;-81
2020/12/13 12:45:23;;;;;;;59.30;29.20;;;;;;;0.62;93.51;98683.70;4490438;78;21187;-81
2020/12/13 12:51:28;;;;;;;58.87;26.02;;;;;;;0.62;93.51;98683.70;4486455;78;21168;-81
2020/12/13 12:57:27;;;;;;;56.98;25.70;;;;;;;0.65;93.78;98692.50;4491013;77;21144;-81
2020/12/13 13:03:31;;;;;;;61.98;27.80;;;;;;;0.48;93.67;98692.50;4488144;78;21187;-81
2020/12/13 13:09:37;;;;;;;62.40;27.98;;;;;;;0.45;93.84;98686.40;4487265;78;21171;-81
2020/12/13 13:22:02;;;;;;;57.45;25.48;;;;;;;0.43;94.13;98703.42;4487993;78;21179;-81
2020/12/13 13:28:05;;;;;;;68.22;30.30;;;;;;;0.53;94.03;98715.24;4492990;78;21605;-81
2020/12/13 13:34:06;;;;;;;72.22;30.02;;;;;;;0.51;94.10;98712.06;4491666;78;21181;-81
2020/12/13 13:40:07;;;;;;;68.10;30.32;;;;;;;0.50;93.80;98727.42;4494463;78;21490;-82
2020/12/13 13:52:23;;;;;;;80.32;33.65;;;;;;;0.37;94.20;98739.69;4484713;78;21163;-82
2020/12/13 13:58:39;;;;;;;68.22;31.73;;;;;;;0.37;94.20;98739.69;4492140;78;21132;-82
2020/12/13 14:04:41;;;;;;;64.95;29.60;;;;;;;0.48;94.25;98744.47;4489995;78;21133;-82
2020/12/13 14:10:44;;;;;;;73.02;29.90;;;;;;;0.53;93.84;98742.17;4490803;78;21113;-82
2020/12/13 14:16:46;;;;;;;67.58;28.67;;;;;;;0.47;93.90;98744.78;4492075;78;21132;-82
2020/12/13 14:22:47;;;;;;;58.68;27.05;;;;;;;0.52;93.91;98755.41;4489885;79;21156;-82
2020/12/13 14:28:49;;;;;;;60.95;26.77;;;;;;;0.54;93.96;98747.25;4490299;78;21621;-82
2020/12/13 14:34:50;;;;;;;57.62;25.80;;;;;;;0.56;93.83;98744.23;4494077;78;21116;-81
2020/12/13 14:40:53;;;;;;;58.63;27.52;;;;;;;0.60;93.76;98762.14;4485794;78;21443;-81
2020/12/13 14:46:55;;;;;;;66.25;30.82;;;;;;;0.62;93.69;98776.64;4492768;78;21156;-81
2020/12/13 14:52:56;;;;;;;65.83;30.17;;;;;;;0.57;93.72;98777.59;4494771;78;21284;-81
2020/12/13 14:58:58;;;;;;;50.03;25.20;;;;;;;0.47;93.45;98782.48;4487726;78;21141;-81
2020/12/13 15:04:59;;;;;;;49.50;24.90;;;;;;;0.47;93.45;98782.48;4492924;78;21183;-81
2020/12/13 15:11:00;;;;;;;62.93;29.57;;;;;;;0.39;93.80;98781.91;4495350;78;21112;-82
2020/12/13 15:23:30;;;;;;;62.03;28.07;;;;;;;0.42;93.76;98793.41;4588877;75;22909;-82
2020/12/13 15:29:31;;;;;;;57.93;25.05;;;;;;;0.45;94.00;98800.85;4495804;78;21621;-82
2020/12/13 15:35:35;;;;;;;57.78;28.05;;;;;;;0.44;93.96;98799.28;4492915;78;22149;-82
2020/12/13 15:41:36;;;;;;;63.85;29.75;;;;;;;0.44;93.96;98799.28;4488218;78;21561;-81
2020/12/13 15:47:38;;;;;;;72.05;32.50;;;;;;;0.36;93.83;98806.77;4486816;78;21211;-81
2020/12/13 15:53:43;;;;;;;61.05;30.23;;;;;;;0.33;93.72;98816.25;4488341;78;21163;-81
2020/12/13 15:59:43;;;;;;;70.47;30.88;;;;;;;0.38;94.23;98823.39;4488880;78;21661;-81
2020/12/13 16:05:45;;;;;;;67.92;29.25;;;;;;;0.38;94.23;98823.39;4483610;78;21124;-81
2020/12/13 16:11:46;;;;;;;58.33;26.37;;;;;;;0.36;93.91;98824.28;4486925;78;21179;-81
2020/12/13 16:17:48;;;;;;;57.27;25.23;;;;;;;0.36;93.70;98829.09;4487889;78;21159;-81
2020/12/13 16:23:49;;;;;;;56.30;25.23;;;;;;;0.27;93.71;98826.16;4487002;78;21624;-81
2020/12/13 16:29:52;;;;;;;57.93;25.20;;;;;;;0.22;93.73;98826.29;4493384;78;21168;-81
2020/12/13 16:35:53;;;;;;;55.27;25.40;;;;;;;0.21;93.69;98830.06;4489156;78;21157;-81
2020/12/13 16:54:12;;;;;;;66.62;30.05;;;;;;;0.34;93.66;98848.83;4390501;79;21717;-81
2020/12/13 17:00:17;;;;;;;56.83;26.77;;;;;;;0.44;93.89;98854.48;4389259;79;21766;-81
2020/12/13 17:06:18;;;;;;;59.30;28.83;;;;;;;0.46;93.68;98858.98;4383113;80;21339;-81
2020/12/13 17:12:19;;;;;;;53.80;23.70;;;;;;;0.47;93.45;98857.89;4382323;80;21611;-81
2020/12/13 17:18:21;;;;;;;52.70;23.87;;;;;;;0.46;93.25;98856.29;4381604;80;21178;-81
2020/12/13 17:24:23;;;;;;;42.80;20.37;;;;;;;0.38;93.46;98861.89;4385499;80;21284;-81
2020/12/13 17:30:24;;;;;;;45.38;22.37;;;;;;;0.39;93.18;98869.43;4381966;80;21506;-81
2020/12/13 17:36:35;;;;;;;45.88;23.20;;;;;;;0.36;93.33;98878.91;4388857;80;21135;-81
2020/12/13 17:42:38;;;;;;;47.83;22.93;;;;;;;0.38;93.27;98880.74;4379213;80;21162;-81
2020/12/13 17:48:41;;;;;;;51.90;24.47;;;;;;;0.41;93.42;98878.77;4387031;79;21622;-81
2020/12/13 17:54:55;;;;;;;43.90;22.62;;;;;;;0.48;93.37;98885.86;4386365;80;21183;-81
2020/12/13 18:00:52;;;;;;;46.85;22.22;;;;;;;0.46;93.10;98889.95;4380666;80;21141;-80
2020/12/13 18:06:53;;;;;;;61.18;27.87;;;;;;;0.42;92.99;98887.66;4256159;80;10000408;-81
2020/12/13 18:12:55;;;;;;;74.90;31.40;;;;;;;0.42;93.38;98891.16;4390284;80;21623;-81
2020/12/13 18:18:56;;;;;;;67.20;28.80;;;;;;;0.48;93.39;98901.22;4378799;80;21652;-80
2020/12/13 18:24:58;;;;;;;81.28;33.18;;;;;;;0.46;93.34;98916.34;4380144;80;21138;-80
2020/12/13 18:30:59;;;;;;;67.90;31.65;;;;;;;0.46;93.02;98916.89;4383269;80;21865;-80
2020/12/13 18:37:01;;;;;;;63.25;30.70;;;;;;;0.47;93.45;98915.80;4376931;80;21189;-81
2020/12/13 18:43:03;;;;;;;63.38;30.82;;;;;;;0.52;93.12;98921.83;4375220;80;21971;-80
2020/12/13 18:49:04;;;;;;;74.97;36.48;;;;;;;0.56;93.09;98938.97;4383343;80;21614;-81
2020/12/13 18:55:06;;;;;;;66.42;34.30;;;;;;;0.56;93.09;98938.97;4383345;80;21200;-81
2020/12/13 19:01:09;;;;;;;67.03;30.27;;;;;;;0.59;93.14;98937.00;4377966;80;21173;-80
2020/12/13 19:07:11;;;;;;;77.47;35.90;;;;;;;0.54;93.05;98951.95;4385717;80;21161;-81
2020/12/13 19:13:12;;;;;;;70.67;33.18;;;;;;;0.55;93.13;98948.14;4379925;80;21397;-81
2020/12/13 19:19:14;;;;;;;79.53;37.17;;;;;;;0.60;93.08;98956.09;4385987;80;21202;-81
2020/12/13 19:25:15;;;;;;;75.12;35.75;;;;;;;0.59;92.86;98965.29;4378401;80;21125;-81
2020/12/13 19:31:17;;;;;;;75.90;32.90;;;;;;;0.53;93.02;98973.27;4380945;80;21317;-81
2020/12/13 19:37:18;;;;;;;73.28;34.78;;;;;;;0.41;93.17;98958.22;4378397;80;21133;-80
2020/12/13 19:43:20;;;;;;;83.62;39.92;;;;;;;0.59;92.98;98981.45;4369686;80;21229;-81
2020/12/13 19:49:21;;;;;;;81.45;40.50;;;;;;;0.50;93.15;98977.89;4354990;80;21647;-80
2020/12/13 19:55:23;;;;;;;102.42;46.77;;;;;;;0.50;93.15;98977.89;4356422;80;21206;-81
2020/12/13 20:01:24;;;;;;;91.42;41.40;;;;;;;0.66;92.95;99000.64;4358899;80;21157;-81
2020/12/13 20:07:29;;;;;;;90.60;42.85;;;;;;;0.60;92.83;99000.53;4352158;80;21146;-81
2020/12/13 20:13:31;;;;;;;90.28;41.90;;;;;;;0.64;92.99;98998.83;4362251;80;21162;-81
2020/12/13 20:20:34;;;;;;;77.97;37.10;;;;;;;0.64;92.99;98998.83;4355229;80;21790;-81
2020/12/13 21:04:03;;;;;;;74.50;35.58;;;;;;;0.55;92.76;99017.40;4379521;80;21535;-81
2020/12/13 21:35:21;;;;;;;80.28;40.00;;;;;;;0.54;92.97;99032.76;4490478;77;21880;-81
2020/12/13 21:53:30;;;;;;;66.17;30.12;;;;;;;0.50;92.81;99046.58;4584602;76;22913;-81
2020/12/13 21:59:34;;;;;;;63.10;29.35;;;;;;;0.43;92.66;99049.47;4489592;78;21145;-81
2020/12/13 22:30:43;;;;;;;72.03;31.37;;;;;;;0.49;92.98;99042.30;4441266;79;23446;-81
2020/12/13 22:36:47;;;;;;;79.17;32.53;;;;;;;0.36;92.86;99051.81;4377389;80;21225;-81
2020/12/13 22:42:49;;;;;;;71.42;31.33;;;;;;;0.34;93.14;99050.77;4380858;80;21613;-81
2020/12/13 22:48:51;;;;;;;73.55;33.28;;;;;;;0.31;93.14;99044.66;4382877;80;21606;-81
2020/12/13 22:54:52;;;;;;;82.50;38.60;;;;;;;0.30;93.11;99032.28;4381504;80;21611;-81
2020/12/13 23:00:53;;;;;;;80.30;37.03;;;;;;;0.26;93.27;99025.13;4379110;80;21315;-81
2020/12/13 23:06:55;;;;;;;79.47;37.08;;;;;;;0.36;93.13;99049.13;4386277;80;21631;-81
2020/12/13 23:12:56;;;;;;;92.10;41.08;;;;;;;0.45;93.37;99063.43;4382760;80;21575;-81
2020/12/13 23:18:58;;;;;;;82.10;38.58;;;;;;;0.46;93.29;99068.51;4389096;80;21137;-81
2020/12/13 23:24:59;;;;;;;93.87;42.80;;;;;;;0.56;93.36;99072.31;4378573;80;21790;-81
2020/12/13 23:31:00;;;;;;;97.60;40.92;;;;;;;0.46;93.10;99052.35;4414448;80;21142;-80
2020/12/13 23:37:02;;;;;;;88.00;41.42;;;;;;;0.43;93.08;99043.54;4404847;79;21312;-81
2020/12/13 23:43:03;;;;;;;81.00;39.13;;;;;;;0.39;92.92;99045.27;4402239;80;21806;-81
2020/12/13 23:49:04;;;;;;;90.72;40.75;;;;;;;0.39;92.92;99045.27;4409937;80;21181;-81
2020/12/13 23:55:07;;;;;;;94.25;39.58;;;;;;;0.54;93.43;99066.42;4398523;80;21615;-81
